createdAt,value
2018-12-29T00:02:04.940Z,81.16
2018-12-29T00:04:53.568Z,81.16
2018-12-29T00:07:41.948Z,80.55
2018-12-29T00:10:30.084Z,81.16
2018-12-29T00:13:19.146Z,81.46
2018-12-29T00:16:07.395Z,81.74
2018-12-29T00:18:55.626Z,81.07
2018-12-29T00:21:44.225Z,80.75
2018-12-29T00:24:48.293Z,80.68
2018-12-29T00:27:27.616Z,80.68
2018-12-29T00:30:16.652Z,81.26
2018-12-29T00:33:05.511Z,81.80
2018-12-29T00:35:53.961Z,81.21
2018-12-29T00:38:41.939Z,81.19
2018-12-29T00:41:31.064Z,81.19
2018-12-29T00:44:20.191Z,82.33
2018-12-29T00:47:08.908Z,83.10
2018-12-29T00:49:57.298Z,83.10
2018-12-29T00:52:46.898Z,82.47
2018-12-29T00:55:35.700Z,83.21
2018-12-29T00:58:24.201Z,83.21
2018-12-29T01:01:13.355Z,82.99
2018-12-29T01:04:01.827Z,82.79
2018-12-29T01:06:50.453Z,82.60
2018-12-29T01:09:39.204Z,81.66
2018-12-29T01:12:27.279Z,81.66
2018-12-29T01:15:15.280Z,81.81
2018-12-29T01:18:03.425Z,82.29
2018-12-29T01:20:52.116Z,82.29
2018-12-29T01:23:40.702Z,82.82
2018-12-29T01:26:29.562Z,83.37
2018-12-29T01:29:17.436Z,83.30
2018-12-29T01:32:06.446Z,83.56
2018-12-29T01:34:55.037Z,83.56
2018-12-29T01:37:43.459Z,83.72
2018-12-29T01:40:31.434Z,84.12
2018-12-29T01:43:20.434Z,84.28
2018-12-29T01:46:09.832Z,84.63
2018-12-29T01:48:58.219Z,84.88
2018-12-29T01:51:46.742Z,84.88
2018-12-29T01:54:35.207Z,84.64
2018-12-29T01:57:23.107Z,84.85
2018-12-29T02:00:11.391Z,84.02
2018-12-29T02:03:00.330Z,84.02
2018-12-29T02:05:48.209Z,83.87
2018-12-29T02:08:36.863Z,83.87
2018-12-29T02:11:24.971Z,84.62
2018-12-29T02:14:13.039Z,84.62
2018-12-29T02:17:00.997Z,83.65
2018-12-29T02:19:49.329Z,83.07
2018-12-29T02:22:37.906Z,83.14
2018-12-29T02:25:26.097Z,83.14
2018-12-29T02:28:14.597Z,83.06
2018-12-29T02:31:02.726Z,83.39
2018-12-29T02:33:51.163Z,84.39
2018-12-29T02:36:40.042Z,86.01
2018-12-29T02:39:28.197Z,86.57
2018-12-29T02:42:16.618Z,86.34
2018-12-29T02:45:05.359Z,86.96
2018-12-29T02:47:53.525Z,86.97
2018-12-29T02:50:41.626Z,86.82
2018-12-29T02:53:30.698Z,87.20
2018-12-29T02:56:19.328Z,87.78
2018-12-29T02:59:08.968Z,88.29
2018-12-29T03:01:57.572Z,88.29
2018-12-29T03:04:45.314Z,89.22
2018-12-29T03:07:33.805Z,89.54
2018-12-29T03:10:22.693Z,89.88
2018-12-29T03:13:11.509Z,90.24
2018-12-29T03:16:00.392Z,90.55
2018-12-29T03:18:48.267Z,90.53
2018-12-29T03:21:35.970Z,90.49
2018-12-29T03:24:24.754Z,90.78
2018-12-29T03:27:12.900Z,91.15
2018-12-29T03:30:01.805Z,91.15
2018-12-29T03:32:50.911Z,91.71
2018-12-29T03:35:39.546Z,92.03
2018-12-29T03:38:28.214Z,91.98
2018-12-29T03:41:16.731Z,91.49
2018-12-29T03:44:05.562Z,91.01
2018-12-29T03:46:54.978Z,91.01
2018-12-29T03:49:44.389Z,91.62
2018-12-29T03:52:33.174Z,92.17
2018-12-29T03:55:21.891Z,92.51
2018-12-29T03:58:10.010Z,92.42
2018-12-29T04:00:58.421Z,92.42
2018-12-29T04:03:47.759Z,92.43
2018-12-29T04:06:36.766Z,92.07
2018-12-29T04:09:35.063Z,91.98
2018-12-29T04:12:25.711Z,91.40
2018-12-29T04:15:13.703Z,91.39
2018-12-29T04:18:02.829Z,91.41
2018-12-29T04:20:51.669Z,91.54
2018-12-29T04:23:40.627Z,91.21
2018-12-29T04:26:29.548Z,91.21
2018-12-29T04:29:18.491Z,91.26
2018-12-29T04:32:06.787Z,90.87
2018-12-29T04:34:54.962Z,91.79
2018-12-29T04:37:43.671Z,91.99
2018-12-29T04:40:32.167Z,91.99
2018-12-29T04:43:20.308Z,92.36
2018-12-29T04:46:08.456Z,92.43
2018-12-29T04:48:57.049Z,92.17
2018-12-29T04:51:45.960Z,92.17
2018-12-29T04:54:34.410Z,92.19
2018-12-29T04:57:22.870Z,91.97
2018-12-29T05:00:11.966Z,91.97
2018-12-29T05:03:00.287Z,91.91
2018-12-29T05:05:48.870Z,91.91
2018-12-29T05:08:38.438Z,92.14
2018-12-29T05:11:26.865Z,92.23
2018-12-29T05:14:15.775Z,92.21
2018-12-29T05:17:04.376Z,92.27
2018-12-29T05:19:52.058Z,92.46
2018-12-29T05:22:40.250Z,92.42
2018-12-29T05:25:29.005Z,92.16
2018-12-29T05:28:17.663Z,91.13
2018-12-29T05:31:06.041Z,91.13
2018-12-29T05:33:54.968Z,91.79
2018-12-29T05:36:43.088Z,91.96
2018-12-29T05:39:31.836Z,91.85
2018-12-29T05:42:20.851Z,91.58
2018-12-29T05:45:09.158Z,91.49
2018-12-29T05:47:58.211Z,91.83
2018-12-29T05:50:46.550Z,91.92
2018-12-29T05:53:35.363Z,91.92
2018-12-29T05:56:24.727Z,91.74
2018-12-29T05:59:12.735Z,91.22
2018-12-29T06:02:01.546Z,90.75
2018-12-29T06:04:50.175Z,90.75
2018-12-29T06:07:38.624Z,90.65
2018-12-29T06:10:30.325Z,90.56
2018-12-29T06:13:19.463Z,90.94
2018-12-29T06:16:08.574Z,91.01
2018-12-29T06:18:57.285Z,91.04
2018-12-29T06:21:45.376Z,91.03
2018-12-29T06:24:34.018Z,91.16
2018-12-29T06:27:21.945Z,91.45
2018-12-29T06:30:10.287Z,91.43
2018-12-29T06:32:59.496Z,91.35
2018-12-29T06:35:47.716Z,91.35
2018-12-29T06:38:35.650Z,91.07
2018-12-29T06:41:24.098Z,91.07
2018-12-29T06:44:12.408Z,90.64
2018-12-29T06:47:00.687Z,90.44
2018-12-29T06:49:49.019Z,90.26
2018-12-29T06:52:37.733Z,90.05
2018-12-29T06:55:26.378Z,89.80
2018-12-29T06:58:14.217Z,90.44
2018-12-29T07:01:03.134Z,90.54
2018-12-29T07:03:50.786Z,90.61
2018-12-29T07:06:39.525Z,89.65
2018-12-29T07:09:28.317Z,89.65
2018-12-29T07:12:17.390Z,90.02
2018-12-29T07:15:10.443Z,90.21
2018-12-29T07:17:58.634Z,90.21
2018-12-29T07:20:46.864Z,90.12
2018-12-29T07:23:35.160Z,90.12
2018-12-29T07:26:23.807Z,90.12
2018-12-29T07:29:11.971Z,90.29
2018-12-29T07:32:00.880Z,90.29
2018-12-29T07:34:49.507Z,90.44
2018-12-29T07:37:38.945Z,90.44
2018-12-29T07:40:29.099Z,90.17
2018-12-29T07:43:17.498Z,90.11
2018-12-29T07:46:06.110Z,89.82
2018-12-29T07:48:54.321Z,88.95
2018-12-29T07:51:43.077Z,88.95
2018-12-29T07:54:32.028Z,89.54
2018-12-29T07:57:20.459Z,89.54
2018-12-29T08:03:36.662Z,89.80
2018-12-29T08:06:31.514Z,90.17
2018-12-29T08:09:19.958Z,90.12
2018-12-29T08:12:08.433Z,90.02
2018-12-29T08:14:57.251Z,90.02
2018-12-29T08:18:12.078Z,89.48
2018-12-29T08:21:00.449Z,89.33
2018-12-29T08:23:49.427Z,88.96
2018-12-29T08:26:37.262Z,89.31
2018-12-29T08:29:26.740Z,89.31
2018-12-29T08:32:15.008Z,90.00
2018-12-29T08:35:05.634Z,90.21
2018-12-29T08:37:53.274Z,90.21
2018-12-29T08:40:41.932Z,90.44
2018-12-29T08:43:30.135Z,90.06
2018-12-29T08:46:19.441Z,89.63
2018-12-29T08:49:07.567Z,89.63
2018-12-29T08:51:55.916Z,89.14
2018-12-29T08:54:44.188Z,89.30
2018-12-29T08:57:32.786Z,89.27
2018-12-29T09:00:21.403Z,88.75
2018-12-29T09:03:09.547Z,88.39
2018-12-29T09:05:57.980Z,88.39
2018-12-29T09:08:46.773Z,87.22
2018-12-29T09:11:35.517Z,87.22
2018-12-29T09:14:25.098Z,87.28
2018-12-29T09:17:14.578Z,87.34
2018-12-29T09:20:02.753Z,86.65
2018-12-29T09:22:50.856Z,85.80
2018-12-29T09:25:40.030Z,85.04
2018-12-29T09:28:28.862Z,85.04
2018-12-29T09:31:18.256Z,84.70
2018-12-29T09:34:07.150Z,83.19
2018-12-29T09:36:55.704Z,83.71
2018-12-29T09:39:44.091Z,83.71
2018-12-29T09:42:32.884Z,82.46
2018-12-29T09:45:21.248Z,82.88
2018-12-29T09:48:09.387Z,82.88
2018-12-29T09:51:02.010Z,83.01
2018-12-29T09:53:50.830Z,82.25
2018-12-29T09:56:40.471Z,82.36
2018-12-29T09:59:30.032Z,82.34
2018-12-29T10:02:18.162Z,82.34
2018-12-29T10:05:07.404Z,81.72
2018-12-29T10:07:56.291Z,82.05
2018-12-29T10:10:45.453Z,80.72
2018-12-29T10:13:33.405Z,79.76
2018-12-29T10:16:22.150Z,80.33
2018-12-29T10:19:10.663Z,80.70
2018-12-29T10:21:58.858Z,79.49
2018-12-29T10:24:46.575Z,79.76
2018-12-29T10:27:38.810Z,79.33
2018-12-29T10:30:28.958Z,79.09
2018-12-29T10:33:17.077Z,79.41
2018-12-29T10:36:05.566Z,79.13
2018-12-29T10:38:55.939Z,78.25
2018-12-29T10:41:45.122Z,78.17
2018-12-29T10:44:34.321Z,77.91
2018-12-29T10:47:34.430Z,77.84
2018-12-29T10:50:20.564Z,77.21
2018-12-29T10:53:09.344Z,77.03
2018-12-29T10:55:57.890Z,77.66
2018-12-29T10:58:47.235Z,77.81
2018-12-29T11:01:36.098Z,78.74
2018-12-29T11:04:24.646Z,78.60
2018-12-29T11:07:12.681Z,77.54
2018-12-29T11:10:01.292Z,76.84
2018-12-29T11:12:49.770Z,75.69
2018-12-29T11:15:39.244Z,73.33
2018-12-29T11:18:27.684Z,73.86
2018-12-29T11:21:16.200Z,74.16
2018-12-29T11:24:04.331Z,74.85
2018-12-29T11:26:52.473Z,74.71
2018-12-29T11:29:41.092Z,76.14
2018-12-29T11:32:29.792Z,76.40
2018-12-29T11:35:17.702Z,76.86
2018-12-29T11:38:06.163Z,77.35
2018-12-29T11:40:54.656Z,77.15
2018-12-29T11:43:43.722Z,76.48
2018-12-29T11:46:32.874Z,77.63
2018-12-29T11:49:20.969Z,77.80
2018-12-29T11:52:09.133Z,77.07
2018-12-29T11:54:57.598Z,76.58
2018-12-29T11:57:46.279Z,75.51
2018-12-29T12:00:35.681Z,75.99
2018-12-29T12:03:24.350Z,74.79
2018-12-29T12:06:13.307Z,74.90
2018-12-29T12:09:01.669Z,75.24
2018-12-29T12:11:50.182Z,75.01
2018-12-29T12:14:38.611Z,74.72
2018-12-29T12:17:27.636Z,73.50
2018-12-29T12:20:17.074Z,73.74
2018-12-29T12:23:06.440Z,74.24
2018-12-29T12:25:54.899Z,74.57
2018-12-29T12:29:07.289Z,74.90
2018-12-29T12:31:56.291Z,74.39
2018-12-29T12:34:44.386Z,74.38
2018-12-29T12:37:32.689Z,74.29
2018-12-29T12:40:21.341Z,74.45
2018-12-29T12:43:11.130Z,74.02
2018-12-29T12:45:59.916Z,74.01
2018-12-29T12:48:49.308Z,73.99
2018-12-29T12:51:37.866Z,72.74
2018-12-29T12:54:27.037Z,72.74
2018-12-29T12:57:15.183Z,73.99
2018-12-29T13:00:03.247Z,75.14
2018-12-29T13:02:52.369Z,75.19
2018-12-29T13:05:41.029Z,75.95
2018-12-29T13:08:29.470Z,75.23
2018-12-29T13:11:17.900Z,74.35
2018-12-29T13:14:06.270Z,73.66
2018-12-29T13:16:54.567Z,73.28
2018-12-29T13:19:43.304Z,73.07
2018-12-29T13:22:32.153Z,72.69
2018-12-29T13:25:21.340Z,72.60
2018-12-29T13:28:09.943Z,73.25
2018-12-29T13:30:58.938Z,72.53
2018-12-29T13:33:46.984Z,73.26
2018-12-29T13:36:35.820Z,72.88
2018-12-29T13:39:24.412Z,73.09
2018-12-29T13:42:13.572Z,73.26
2018-12-29T13:45:02.800Z,72.91
2018-12-29T13:47:50.741Z,72.73
2018-12-29T13:50:39.467Z,72.95
2018-12-29T13:53:28.071Z,72.47
2018-12-29T13:56:16.262Z,72.47
2018-12-29T13:59:05.377Z,73.22
2018-12-29T14:01:53.985Z,72.44
2018-12-29T14:04:43.104Z,73.68
2018-12-29T14:07:32.075Z,73.18
2018-12-29T14:10:21.744Z,73.23
2018-12-29T14:13:10.694Z,73.54
2018-12-29T14:15:58.357Z,73.57
2018-12-29T14:18:46.981Z,73.57
2018-12-29T14:21:34.917Z,73.59
2018-12-29T14:24:23.342Z,73.74
2018-12-29T14:27:11.756Z,73.86
2018-12-29T14:30:00.186Z,73.86
2018-12-29T14:32:48.610Z,74.74
2018-12-29T14:35:37.916Z,74.67
2018-12-29T14:38:26.132Z,75.34
2018-12-29T14:41:15.199Z,75.73
2018-12-29T14:44:04.293Z,75.73
2018-12-29T14:46:53.245Z,75.30
2018-12-29T14:49:41.491Z,76.58
2018-12-29T14:52:30.144Z,76.34
2018-12-29T14:55:18.631Z,76.81
2018-12-29T14:58:07.475Z,77.17
2018-12-29T15:00:55.376Z,77.75
2018-12-29T15:03:44.054Z,77.01
2018-12-29T15:06:32.000Z,77.14
2018-12-29T15:09:21.347Z,77.19
2018-12-29T15:12:11.250Z,77.46
2018-12-29T15:15:00.747Z,77.85
2018-12-29T15:17:49.214Z,77.52
2018-12-29T15:20:37.797Z,77.84
2018-12-29T15:23:26.907Z,77.90
2018-12-29T15:26:15.533Z,77.89
2018-12-29T15:29:03.678Z,78.04
2018-12-29T15:31:51.507Z,78.32
2018-12-29T15:34:40.232Z,78.74
2018-12-29T15:37:28.636Z,79.19
2018-12-29T15:40:16.232Z,79.26
2018-12-29T15:43:04.217Z,79.39
2018-12-29T15:45:53.565Z,79.34
2018-12-29T15:48:42.892Z,79.75
2018-12-29T15:51:31.561Z,79.86
2018-12-29T15:54:19.479Z,80.07
2018-12-29T15:57:08.113Z,80.15
2018-12-29T15:59:56.688Z,80.23
2018-12-29T16:02:45.350Z,80.65
2018-12-29T16:05:33.408Z,80.85
2018-12-29T16:08:21.508Z,81.12
2018-12-29T16:11:10.331Z,81.85
2018-12-29T16:13:58.669Z,82.77
2018-12-29T16:16:47.672Z,83.38
2018-12-29T16:19:36.106Z,83.66
2018-12-29T16:22:24.221Z,83.84
2018-12-29T16:25:12.469Z,83.92
2018-12-29T16:28:01.048Z,83.89
2018-12-29T16:30:50.351Z,84.09
2018-12-29T16:33:39.693Z,84.31
2018-12-29T16:36:30.473Z,84.07
2018-12-29T16:39:18.837Z,83.65
2018-12-29T16:42:07.233Z,83.36
2018-12-29T16:44:56.251Z,83.05
2018-12-29T16:47:45.147Z,82.83
2018-12-29T16:50:33.490Z,82.83
2018-12-29T16:53:29.268Z,83.20
2018-12-29T16:56:15.712Z,82.86
2018-12-29T16:59:03.982Z,83.10
2018-12-29T17:01:52.639Z,83.86
2018-12-29T17:04:41.475Z,83.86
2018-12-29T17:07:29.852Z,85.32
2018-12-29T17:10:17.994Z,85.18
2018-12-29T17:13:07.229Z,85.25
2018-12-29T17:15:55.755Z,84.76
2018-12-29T17:18:44.276Z,84.55
2018-12-29T17:21:33.700Z,84.46
2018-12-29T17:24:22.013Z,84.04
2018-12-29T17:27:12.704Z,84.28
2018-12-29T17:30:01.296Z,84.27
2018-12-29T17:32:50.525Z,84.27
2018-12-29T17:35:39.037Z,83.54
2018-12-29T17:38:27.338Z,84.10
2018-12-29T17:41:16.333Z,84.33
2018-12-29T17:44:05.711Z,84.24
2018-12-29T17:46:55.220Z,83.54
2018-12-29T17:49:44.041Z,84.32
2018-12-29T17:52:31.976Z,84.32
2018-12-29T17:55:20.223Z,84.76
2018-12-29T17:58:08.997Z,85.21
2018-12-29T18:00:57.750Z,85.09
2018-12-29T18:03:46.081Z,84.81
2018-12-29T18:06:34.193Z,84.31
2018-12-29T18:09:23.101Z,84.30
2018-12-29T18:12:12.166Z,84.43
2018-12-29T18:15:00.741Z,84.37
2018-12-29T18:17:49.625Z,84.26
2018-12-29T18:20:38.559Z,83.85
2018-12-29T18:23:27.248Z,83.88
2018-12-29T18:26:15.544Z,83.88
2018-12-29T18:29:07.892Z,83.79
2018-12-29T18:31:57.337Z,85.25
2018-12-29T18:34:46.710Z,85.46
2018-12-29T18:37:36.320Z,85.46
2018-12-29T18:40:24.770Z,86.10
2018-12-29T18:43:13.276Z,86.10
2018-12-29T18:46:01.707Z,85.84
2018-12-29T18:48:50.093Z,86.11
2018-12-29T18:51:38.197Z,85.83
2018-12-29T18:54:27.963Z,84.83
2018-12-29T18:57:16.689Z,84.83
2018-12-29T19:00:05.510Z,84.45
2018-12-29T19:02:54.576Z,84.84
2018-12-29T19:05:44.032Z,85.10
2018-12-29T19:08:32.606Z,85.49
2018-12-29T19:11:21.468Z,85.32
2018-12-29T19:14:10.828Z,85.10
2018-12-29T19:16:59.391Z,84.89
2018-12-29T19:19:48.621Z,85.30
2018-12-29T19:22:37.504Z,85.42
2018-12-29T19:25:25.596Z,85.40
2018-12-29T19:28:13.735Z,85.20
2018-12-29T19:31:03.125Z,84.70
2018-12-29T19:33:52.037Z,84.94
2018-12-29T19:36:41.145Z,85.45
2018-12-29T19:39:29.528Z,85.22
2018-12-29T19:42:18.300Z,86.07
2018-12-29T19:45:07.015Z,86.07
2018-12-29T19:47:56.169Z,86.39
2018-12-29T19:50:44.572Z,87.06
2018-12-29T19:53:34.502Z,86.57
2018-12-29T19:56:23.307Z,85.82
2018-12-29T19:59:12.333Z,85.82
2018-12-29T20:02:00.952Z,85.26
2018-12-29T20:04:49.541Z,85.33
2018-12-29T20:07:38.153Z,85.33
2018-12-29T20:10:27.081Z,85.53
2018-12-29T20:13:16.077Z,85.27
2018-12-29T20:16:04.967Z,85.27
2018-12-29T20:18:53.648Z,85.64
2018-12-29T20:21:41.777Z,85.82
2018-12-29T20:24:29.940Z,86.00
2018-12-29T20:27:18.302Z,85.56
2018-12-29T20:30:07.607Z,86.10
2018-12-29T20:32:59.038Z,86.25
2018-12-29T20:35:45.749Z,86.20
2018-12-29T20:38:33.907Z,86.35
2018-12-29T20:41:21.875Z,86.54
2018-12-29T20:44:11.214Z,86.83
2018-12-29T20:46:59.409Z,86.83
2018-12-29T20:49:48.083Z,86.78
2018-12-29T20:52:36.614Z,86.78
2018-12-29T20:55:25.204Z,87.11
2018-12-29T20:58:14.243Z,87.67
2018-12-29T21:01:03.068Z,87.44
2018-12-29T21:03:52.801Z,87.59
2018-12-29T21:06:41.807Z,87.56
2018-12-29T21:09:30.427Z,87.73
2018-12-29T21:12:19.879Z,87.65
2018-12-29T21:15:08.447Z,87.82
2018-12-29T21:17:56.829Z,87.82
2018-12-29T21:20:45.002Z,88.15
2018-12-29T21:23:33.350Z,88.30
2018-12-29T21:26:23.835Z,87.44
2018-12-29T21:29:12.320Z,87.28
2018-12-29T21:32:01.065Z,87.43
2018-12-29T21:34:50.413Z,87.43
2018-12-29T21:37:39.665Z,87.34
2018-12-29T21:40:28.069Z,87.34
2018-12-29T21:43:18.382Z,86.75
2018-12-29T21:46:07.670Z,86.85
2018-12-29T21:48:56.451Z,86.14
2018-12-29T21:51:45.838Z,86.15
2018-12-29T21:54:35.262Z,85.87
2018-12-29T21:57:27.025Z,85.44
2018-12-29T22:00:15.576Z,85.44
2018-12-29T22:03:03.633Z,85.33
2018-12-29T22:05:51.648Z,85.33
2018-12-29T22:08:40.115Z,85.25
2018-12-29T22:11:29.197Z,85.16
2018-12-29T22:14:17.642Z,85.16
2018-12-29T22:17:06.588Z,85.57
2018-12-29T22:19:55.918Z,85.57
2018-12-29T22:22:44.738Z,85.08
2018-12-29T22:25:33.476Z,85.08
2018-12-29T22:28:22.194Z,85.03
2018-12-29T22:31:10.660Z,85.12
2018-12-29T22:33:58.570Z,85.12
2018-12-29T22:36:47.171Z,84.89
2018-12-29T22:39:35.792Z,84.22
2018-12-29T22:42:24.649Z,84.69
2018-12-29T22:45:13.960Z,84.63
2018-12-29T22:48:02.825Z,84.29
2018-12-29T22:50:51.253Z,84.21
2018-12-29T22:53:39.598Z,84.21
2018-12-29T22:56:28.708Z,84.11
2018-12-29T22:59:16.579Z,84.11
2018-12-29T23:02:05.097Z,85.54
2018-12-29T23:04:53.882Z,85.54
2018-12-29T23:07:45.246Z,86.55
2018-12-29T23:10:33.648Z,87.62
2018-12-29T23:13:22.896Z,88.71
2018-12-29T23:16:11.302Z,88.71
2018-12-29T23:19:01.294Z,89.21
2018-12-29T23:21:50.283Z,89.38
2018-12-29T23:24:38.890Z,89.38
2018-12-29T23:27:27.009Z,89.80
2018-12-29T23:30:15.622Z,90.20
2018-12-29T23:33:03.865Z,90.23
2018-12-29T23:35:52.918Z,90.23
2018-12-29T23:38:43.021Z,90.96
2018-12-29T23:41:31.313Z,92.01
2018-12-29T23:44:19.621Z,92.01
2018-12-29T23:47:08.578Z,91.65
2018-12-29T23:49:56.860Z,92.06
2018-12-29T23:52:45.442Z,92.25
2018-12-29T23:55:34.802Z,92.42
2018-12-29T23:58:23.861Z,92.27
